Time;durP1;ratioP1;P1;durP2;ratioP2;P2;SDS_P1;SDS_P2;PMS_P1;PMS_P2;Temp;Humidity;BMP_temperature;BMP_pressure;BME280_temperature;BME280_humidity;BME280_pressure;Samples;Min_cycle;Max_cycle;Signal;HPM_P1;HPM_P2
2021/10/16 00:01:35;;;;;;;;;3.25;2.00;;;;;15.48;48.99;98601.44;4804555;28;103340;-82
2021/10/16 00:04:05;;;;;;;;;2.25;2.00;;;;;15.49;48.81;98616.72;4792515;28;103794;-82
2021/10/16 00:06:34;;;;;;;;;3.25;2.00;;;;;15.49;48.80;98617.53;4808587;28;102436;-82
2021/10/16 00:09:04;;;;;;;;;2.50;2.00;;;;;15.49;48.42;98623.00;4805504;28;103720;-82
2021/10/16 00:11:33;;;;;;;;;2.00;1.00;;;;;15.48;48.86;98618.63;4804755;29;102489;-82
2021/10/16 00:14:03;;;;;;;;;3.00;2.00;;;;;15.48;48.83;98632.25;4799601;28;102595;-82
2021/10/16 00:16:32;;;;;;;;;2.00;2.00;;;;;15.49;48.67;98625.72;4813274;29;102885;-82
2021/10/16 00:19:01;;;;;;;;;3.00;2.25;;;;;15.49;48.94;98624.91;4805178;28;103217;-82
2021/10/16 00:21:30;;;;;;;;;3.75;3.00;;;;;15.48;48.74;98624.06;4831879;28;102727;-82
2021/10/16 00:24:00;;;;;;;;;2.00;2.00;;;;;15.49;48.98;98627.63;4811481;28;103110;-82
2021/10/16 00:26:29;;;;;;;;;1.50;1.50;;;;;15.49;49.21;98630.34;4804218;29;102757;-82
2021/10/16 00:28:58;;;;;;;;;2.75;2.00;;;;;15.49;48.89;98630.34;4817721;28;103478;-82
2021/10/16 00:31:28;;;;;;;;;3.00;2.00;;;;;15.48;48.81;98642.31;4824562;28;102476;-82
2021/10/16 00:33:57;;;;;;;;;3.00;2.50;;;;;15.49;48.98;98633.09;4824324;28;102639;-82
2021/10/16 00:36:26;;;;;;;;;1.25;1.25;;;;;15.49;48.51;98630.34;4829324;28;104117;-82
2021/10/16 00:38:54;;;;;;;;;2.50;2.50;;;;;15.48;48.78;98636.88;4815113;28;104648;-82
2021/10/16 00:41:21;;;;;;;;;2.00;2.00;;;;;15.49;48.97;98635.81;4820588;28;102476;-82
2021/10/16 00:43:48;;;;;;;;;1.75;1.00;;;;;15.49;49.10;98646.72;4824952;28;104065;-82
2021/10/16 00:46:15;;;;;;;;;1.00;1.00;;;;;15.48;48.88;98648.59;4804761;29;111465;-81
2021/10/16 00:48:43;;;;;;;;;2.75;1.50;;;;;15.49;48.82;98646.72;4835605;28;108955;-82
2021/10/16 00:51:12;;;;;;;;;1.50;1.00;;;;;15.49;49.14;98646.72;4803637;28;103270;-82
2021/10/16 00:53:42;;;;;;;;;1.75;1.75;;;;;15.50;48.89;98648.34;4815316;28;102948;-82
2021/10/16 00:56:11;;;;;;;;;3.00;3.00;;;;;15.50;48.97;98651.06;4832138;28;102592;-84
2021/10/16 00:58:39;;;;;;;;;1.00;1.00;;;;;15.52;49.13;98649.81;4818972;28;104128;-83
2021/10/16 01:01:09;;;;;;;;;1.25;1.00;;;;;15.52;48.92;98651.72;4800414;28;102786;-83
2021/10/16 01:03:38;;;;;;;;;2.00;1.25;;;;;15.52;48.79;98657.16;4784667;28;102475;-83
2021/10/16 01:06:05;;;;;;;;;3.75;2.25;;;;;15.49;48.87;98647.50;4792192;28;103998;-82
2021/10/16 01:08:32;;;;;;;;;2.00;2.00;;;;;15.49;49.39;98658.41;4780197;28;106170;-82
2021/10/16 01:11:00;;;;;;;;;2.75;2.75;;;;;15.47;49.29;98655.09;4795066;28;103660;-82
2021/10/16 01:13:31;;;;;;;;;1.00;1.00;;;;;15.49;49.04;98657.63;4811974;28;102045;-82
2021/10/16 01:16:00;;;;;;;;;1.00;1.00;;;;;15.49;48.91;98661.13;4802793;28;103834;-82
2021/10/16 01:18:29;;;;;;;;;1.75;1.50;;;;;15.49;48.91;98658.41;4824741;28;103059;-82
2021/10/16 01:21:06;;;;;;;;;1.00;1.00;;;;;15.49;49.16;98663.06;4814259;28;105171;-82
2021/10/16 01:23:34;;;;;;;;;2.00;2.00;;;;;15.49;48.88;98663.88;4811668;28;102599;-82
2021/10/16 01:26:03;;;;;;;;;2.75;1.00;;;;;15.49;49.19;98657.63;4829207;28;102443;-83
2021/10/16 01:28:31;;;;;;;;;1.00;1.00;;;;;15.48;49.08;98655.94;4814106;28;104004;-82
2021/10/16 01:30:59;;;;;;;;;1.00;1.00;;;;;15.49;49.06;98657.63;4778223;29;104065;-82
2021/10/16 01:33:27;;;;;;;;;2.00;1.00;;;;;15.51;48.83;98666.41;4804209;28;102442;-82
2021/10/16 01:36:03;;;;;;;;;1.00;1.00;;;;;15.48;48.80;98662.22;4816569;28;102703;-82
2021/10/16 01:38:32;;;;;;;;;1.00;1.00;;;;;15.48;48.91;98667.69;4809826;28;103269;-82
2021/10/16 01:41:00;;;;;;;;;2.00;2.00;;;;;15.47;48.97;98668.72;4814590;28;102811;-82
2021/10/16 01:43:27;;;;;;;;;2.25;2.00;;;;;15.48;49.08;98651.31;4812279;28;102370;-82
2021/10/16 01:45:55;;;;;;;;;1.75;1.00;;;;;15.48;48.79;98658.66;4805397;29;102217;-82
2021/10/16 01:48:23;;;;;;;;;2.00;2.00;;;;;15.48;48.88;98658.66;4810341;28;107938;-82
2021/10/16 01:50:51;;;;;;;;;1.00;1.00;;;;;15.48;48.31;98667.69;4809144;28;102281;-82
2021/10/16 01:53:19;;;;;;;;;1.00;1.00;;;;;15.48;48.77;98672.28;4807444;29;102679;-81
2021/10/16 01:55:47;;;;;;;;;2.25;2.00;;;;;15.48;49.07;98672.28;4813280;28;102514;-82
2021/10/16 01:58:16;;;;;;;;;2.00;1.00;;;;;15.49;48.90;98671.25;4806777;29;109572;-82
2021/10/16 02:00:46;;;;;;;;;2.50;2.00;;;;;15.48;48.99;98675.03;4797603;29;102716;-82
2021/10/16 02:03:14;;;;;;;;;1.00;1.00;;;;;15.47;48.93;98670.63;4805156;28;104015;-82
2021/10/16 02:05:45;;;;;;;;;1.00;1.00;;;;;15.48;48.96;98667.69;4812078;29;102397;-82
2021/10/16 02:08:14;;;;;;;;;1.50;1.50;;;;;15.48;48.84;98680.47;4819459;28;109774;-82
2021/10/16 02:10:41;;;;;;;;;2.00;2.00;;;;;15.47;48.80;98674.19;4808618;29;102674;-82
2021/10/16 02:13:08;;;;;;;;;1.50;1.50;;;;;15.48;48.96;98677.75;4817455;28;102144;-82
2021/10/16 02:15:35;;;;;;;;;1.00;1.00;;;;;15.47;48.86;98687.81;4804132;28;102136;-82
2021/10/16 02:18:02;;;;;;;;;1.00;1.00;;;;;15.47;48.55;98681.53;4802514;29;104074;-82
2021/10/16 02:20:29;;;;;;;;;1.25;1.00;;;;;15.47;48.80;98678.78;4818160;28;102854;-82
2021/10/16 02:22:56;;;;;;;;;1.00;1.00;;;;;15.47;48.83;98692.41;4801319;28;102584;-82
2021/10/16 02:25:23;;;;;;;;;2.25;1.00;;;;;15.46;49.37;98696.19;4807161;28;102128;-82
2021/10/16 02:27:50;;;;;;;;;1.00;1.00;;;;;15.46;49.28;98694.31;4807309;29;104084;-82
2021/10/16 02:30:17;;;;;;;;;1.00;1.00;;;;;15.45;48.92;98694.53;4818607;28;102487;-82
2021/10/16 02:32:44;;;;;;;;;1.00;1.00;;;;;15.47;48.82;98700.59;4829527;28;102724;-82
2021/10/16 02:35:12;;;;;;;;;2.00;1.00;;;;;15.46;48.86;98685.31;4820035;28;102416;-82
2021/10/16 02:37:39;;;;;;;;;1.00;1.00;;;;;15.45;48.98;98703.53;4825824;28;103616;-82
2021/10/16 02:40:07;;;;;;;;;0.00;0.00;;;;;15.46;48.91;98698.94;4825318;28;102686;-82
2021/10/16 02:42:34;;;;;;;;;0.50;0.50;;;;;15.45;48.96;98702.72;4833583;28;104644;-82
2021/10/16 02:45:01;;;;;;;;;1.00;0.67;;;;;15.44;49.31;98709.25;4828326;28;102791;-82
2021/10/16 02:47:31;;;;;;;;;1.00;1.00;;;;;15.46;49.14;98707.09;4813428;28;104429;-82
2021/10/16 02:49:59;;;;;;;;;1.00;0.00;;;;;15.46;48.48;98709.81;4814236;28;104964;-82
2021/10/16 02:52:26;;;;;;;;;0.00;0.00;;;;;15.44;48.90;98715.53;4832027;28;102453;-82
2021/10/16 02:54:53;;;;;;;;;1.33;1.33;;;;;15.46;48.78;98713.38;4825054;28;102611;-82
2021/10/16 02:57:20;;;;;;;;;2.25;1.00;;;;;15.46;48.86;98707.09;4836671;28;103589;-82
2021/10/16 02:59:47;;;;;;;;;0.00;0.00;;;;;15.45;48.96;98706.25;4833731;28;102264;-82
2021/10/16 03:02:14;;;;;;;;;2.00;1.00;;;;;15.44;48.88;98714.69;4828056;28;103888;-82
2021/10/16 03:04:41;;;;;;;;;1.25;1.00;;;;;15.43;48.72;98715.75;4834688;28;102614;-82
2021/10/16 03:07:08;;;;;;;;;0.50;0.50;;;;;15.45;48.99;98721.78;4834135;28;104271;-82
2021/10/16 03:09:35;;;;;;;;;1.75;1.00;;;;;15.46;48.75;98723.44;4827029;28;102501;-82
2021/10/16 03:12:02;;;;;;;;;1.00;1.00;;;;;15.42;48.85;98719.53;4832374;28;103390;-82
2021/10/16 03:14:29;;;;;;;;;1.00;1.00;;;;;15.44;48.91;98718.25;4835175;28;102666;-81
2021/10/16 03:16:56;;;;;;;;;1.00;1.00;;;;;15.45;48.71;98721.78;4822188;28;104084;-82
2021/10/16 03:19:23;;;;;;;;;1.75;0.50;;;;;15.44;48.74;98728.31;4835481;28;102646;-82
2021/10/16 03:21:50;;;;;;;;;2.00;1.00;;;;;15.44;48.72;98722.88;4832601;28;102740;-82
2021/10/16 03:24:17;;;;;;;;;0.00;0.00;;;;;15.45;48.81;98732.69;4828077;28;102543;-82
2021/10/16 03:26:44;;;;;;;;;1.00;1.00;;;;;15.44;48.56;98726.44;4842041;28;114104;-82
2021/10/16 03:29:11;;;;;;;;;1.00;1.00;;;;;15.44;48.66;98731.03;4833769;28;102658;-82
2021/10/16 03:31:39;;;;;;;;;2.00;1.25;;;;;15.44;48.80;98734.59;4830423;28;102642;-82
2021/10/16 03:34:06;;;;;;;;;2.00;1.00;;;;;15.44;48.83;98733.75;4832767;28;102678;-82
2021/10/16 03:36:33;;;;;;;;;1.00;1.00;;;;;15.44;48.71;98731.03;4826015;28;104188;-82
2021/10/16 03:39:00;;;;;;;;;1.00;1.00;;;;;15.44;48.57;98731.88;4810940;28;103663;-82
2021/10/16 03:41:27;;;;;;;;;1.00;1.00;;;;;15.44;48.68;98731.03;4825002;28;102691;-82
2021/10/16 03:43:54;;;;;;;;;0.50;0.00;;;;;15.45;48.80;98732.69;4837986;28;102693;-82
2021/10/16 03:46:21;;;;;;;;;0.00;0.00;;;;;15.43;48.54;98738.38;4821913;28;104323;-82
2021/10/16 03:48:48;;;;;;;;;0.75;0.75;;;;;15.43;48.82;98732.94;4827637;28;102432;-82
2021/10/16 03:51:15;;;;;;;;;1.00;1.00;;;;;15.43;48.69;98730.22;4838813;28;102553;-82
2021/10/16 03:53:42;;;;;;;;;2.50;1.75;;;;;15.43;48.92;98734.81;4828439;28;102752;-82
2021/10/16 03:56:09;;;;;;;;;0.75;0.75;;;;;15.44;48.66;98725.59;4832279;28;104356;-82
2021/10/16 03:58:36;;;;;;;;;1.00;1.00;;;;;15.44;48.75;98731.03;4841852;28;102196;-82
2021/10/16 04:01:03;;;;;;;;;1.00;1.00;;;;;15.39;48.71;98720.00;4824991;28;103525;-82
2021/10/16 04:03:30;;;;;;;;;0.75;0.75;;;;;15.43;48.55;98730.22;4830874;28;102674;-82
2021/10/16 04:05:57;;;;;;;;;0.00;0.00;;;;;15.42;48.85;98735.88;4831648;28;103567;-82
2021/10/16 04:08:24;;;;;;;;;0.00;0.00;;;;;15.43;48.48;98745.72;4818704;28;104260;-82
2021/10/16 04:10:54;;;;;;;;;1.00;1.00;;;;;15.43;48.73;98729.38;4820214;28;103248;-81
2021/10/16 04:13:21;;;;;;;;;1.75;1.00;;;;;15.43;48.77;98734.81;4841047;28;102575;-82
2021/10/16 04:15:48;;;;;;;;;1.00;1.00;;;;;15.42;48.48;98727.69;4836535;28;105021;-82
2021/10/16 04:18:15;;;;;;;;;1.00;0.50;;;;;15.42;48.69;98725.81;4829763;28;102863;-82
2021/10/16 04:20:43;;;;;;;;;1.00;0.75;;;;;15.42;48.94;98728.53;4838820;28;102351;-82
2021/10/16 04:23:10;;;;;;;;;0.25;0.25;;;;;15.42;48.60;98728.53;4800707;28;102656;-82
2021/10/16 04:25:37;;;;;;;;;0.00;0.00;;;;;15.42;48.75;98731.25;4822618;28;104071;-82
2021/10/16 04:28:04;;;;;;;;;0.00;0.00;;;;;15.43;48.59;98737.53;4834775;28;102215;-82
2021/10/16 04:30:31;;;;;;;;;0.75;0.75;;;;;15.41;48.84;98732.31;4827106;28;102212;-82
2021/10/16 04:32:59;;;;;;;;;1.00;1.00;;;;;15.41;48.95;98736.94;4809295;28;102475;-82
2021/10/16 04:35:26;;;;;;;;;1.00;1.00;;;;;15.41;49.04;98740.50;4833874;28;104142;-82
2021/10/16 04:37:54;;;;;;;;;1.00;1.00;;;;;15.42;48.68;98744.06;4824092;28;102521;-82
2021/10/16 04:40:22;;;;;;;;;1.00;0.00;;;;;15.41;49.15;98743.22;4821722;28;102528;-82
2021/10/16 04:42:49;;;;;;;;;1.00;1.00;;;;;15.40;48.60;98751.63;4839218;28;103704;-82
2021/10/16 04:45:17;;;;;;;;;1.00;1.00;;;;;15.41;48.51;98753.28;4823764;28;108950;-82
2021/10/16 04:47:44;;;;;;;;;0.25;0.25;;;;;15.41;48.75;98751.38;4805875;28;102698;-82
2021/10/16 04:50:11;;;;;;;;;0.00;0.00;;;;;15.41;48.54;98754.13;4816119;28;102745;-82
2021/10/16 04:52:38;;;;;;;;;0.00;0.00;;;;;15.41;48.60;98759.56;4814733;28;102137;-82
2021/10/16 04:55:06;;;;;;;;;1.00;1.00;;;;;15.40;48.67;98751.63;4824374;28;105731;-82
2021/10/16 04:57:36;;;;;;;;;2.00;2.00;;;;;15.42;48.63;98765.84;4829531;28;102614;-82
2021/10/16 05:00:04;;;;;;;;;0.00;0.00;;;;;15.41;48.78;98762.28;4825283;28;103036;-82
2021/10/16 05:02:31;;;;;;;;;0.50;0.50;;;;;15.41;48.69;98759.56;4825155;28;104852;-82
2021/10/16 05:04:58;;;;;;;;;0.25;0.25;;;;;15.41;48.78;98762.28;4807614;28;104204;-82
2021/10/16 05:07:25;;;;;;;;;1.00;1.00;;;;;15.42;48.79;98763.13;4834446;28;103240;-81
2021/10/16 05:09:52;;;;;;;;;0.25;0.25;;;;;15.41;48.88;98769.63;4828889;28;103509;-82
2021/10/16 05:12:19;;;;;;;;;0.00;0.00;;;;;15.41;48.58;98767.75;4836496;28;102555;-82
2021/10/16 05:14:46;;;;;;;;;1.00;1.00;;;;;15.41;48.36;98775.06;4832218;28;111274;-82
2021/10/16 05:17:13;;;;;;;;;1.00;1.00;;;;;15.41;48.52;98775.06;4824376;28;102622;-82
2021/10/16 05:19:40;;;;;;;;;2.50;2.00;;;;;15.40;48.61;98776.97;4819947;28;103725;-82
2021/10/16 05:22:07;;;;;;;;;0.00;0.00;;;;;15.40;48.80;98776.97;4832092;28;102402;-82
2021/10/16 05:24:34;;;;;;;;;1.00;1.00;;;;;15.40;48.66;98776.16;4822849;28;104086;-82
2021/10/16 05:27:01;;;;;;;;;1.00;1.00;;;;;15.39;48.54;98774.50;4832545;28;103541;-82
2021/10/16 05:29:28;;;;;;;;;1.50;1.00;;;;;15.40;48.84;98785.13;4823484;28;103509;-82
2021/10/16 05:31:55;;;;;;;;;1.00;1.00;;;;;15.39;48.71;98788.94;4825436;28;103363;-82
2021/10/16 05:34:22;;;;;;;;;2.00;1.00;;;;;15.39;48.57;98788.94;4834969;28;105622;-81
2021/10/16 05:36:49;;;;;;;;;1.00;0.50;;;;;15.40;48.77;98785.13;4834633;28;102932;-82
2021/10/16 05:39:17;;;;;;;;;1.00;0.25;;;;;15.40;48.82;98787.88;4824428;28;103863;-82
2021/10/16 05:41:44;;;;;;;;;1.00;0.50;;;;;15.40;48.61;98796.03;4831033;28;102903;-82
2021/10/16 05:44:11;;;;;;;;;1.00;1.00;;;;;15.39;48.79;98793.56;4839452;28;104249;-82
2021/10/16 05:46:38;;;;;;;;;1.00;1.00;;;;;15.39;48.59;98802.56;4820710;28;102248;-82
2021/10/16 05:49:05;;;;;;;;;1.25;1.00;;;;;15.41;48.37;98805.06;4813282;28;102550;-82
2021/10/16 05:51:32;;;;;;;;;1.00;1.00;;;;;15.41;48.40;98807.78;4810084;28;102754;-82
2021/10/16 05:53:59;;;;;;;;;1.00;1.00;;;;;15.40;48.65;98803.41;4831135;28;104485;-82
2021/10/16 05:56:26;;;;;;;;;0.25;0.25;;;;;15.40;48.79;98809.66;4833018;28;102518;-82
2021/10/16 05:58:58;;;;;;;;;1.00;1.00;;;;;15.40;48.61;98806.13;4826378;28;103160;-82
2021/10/16 06:01:26;;;;;;;;;1.50;1.00;;;;;15.39;48.57;98805.31;4823174;28;103343;-82
2021/10/16 06:03:54;;;;;;;;;0.50;0.00;;;;;15.40;48.58;98819.75;4827922;28;103922;-82
2021/10/16 06:06:21;;;;;;;;;2.00;2.00;;;;;15.40;48.56;98817.03;4826746;28;102538;-82
2021/10/16 06:08:48;;;;;;;;;1.00;1.00;;;;;15.39;48.66;98810.75;4828995;28;104828;-82
2021/10/16 06:11:15;;;;;;;;;1.00;1.00;;;;;15.39;48.69;98810.75;4825988;28;102632;-82
2021/10/16 06:13:42;;;;;;;;;1.00;1.00;;;;;15.39;48.56;98820.81;4836664;28;104317;-82
2021/10/16 06:16:09;;;;;;;;;0.75;0.75;;;;;15.39;48.48;98824.38;4803223;28;104006;-82
2021/10/16 06:18:36;;;;;;;;;1.00;1.00;;;;;15.39;48.60;98818.09;4809475;28;102616;-82
2021/10/16 06:21:03;;;;;;;;;1.50;1.00;;;;;15.40;48.74;98819.75;4833790;28;102658;-82
2021/10/16 06:23:30;;;;;;;;;0.25;0.25;;;;;15.38;48.78;98811.81;4831666;28;105425;-82
2021/10/16 06:25:57;;;;;;;;;0.00;0.00;;;;;15.38;48.57;98825.44;4824552;28;105900;-82
2021/10/16 06:28:24;;;;;;;;;1.00;1.00;;;;;15.38;48.50;98828.16;4827674;28;103647;-82
2021/10/16 06:30:51;;;;;;;;;1.00;1.00;;;;;15.39;48.73;98831.72;4827878;28;102840;-82
2021/10/16 06:33:19;;;;;;;;;1.00;1.00;;;;;15.39;48.34;98828.97;4811230;28;109016;-82
2021/10/16 06:35:47;;;;;;;;;0.00;0.00;;;;;15.39;48.73;98832.56;4818264;28;102341;-82
2021/10/16 06:38:14;;;;;;;;;2.00;2.00;;;;;15.40;48.42;98836.09;4810635;28;102504;-82
2021/10/16 06:40:41;;;;;;;;;1.00;1.00;;;;;15.39;48.70;98838.00;4806494;28;102380;-82
2021/10/16 06:43:08;;;;;;;;;2.25;2.00;;;;;15.40;48.70;98841.56;4816406;28;103967;-82
2021/10/16 06:45:35;;;;;;;;;0.00;0.00;;;;;15.40;48.97;98849.72;4813800;28;102814;-82
2021/10/16 06:48:02;;;;;;;;;2.00;1.75;;;;;15.39;48.62;98845.34;4802168;28;102311;-82
2021/10/16 06:50:29;;;;;;;;;1.00;1.00;;;;;15.39;48.67;98848.91;4810798;28;102689;-82
2021/10/16 06:52:56;;;;;;;;;2.00;2.00;;;;;15.39;48.54;98848.91;4814048;28;104107;-82
2021/10/16 06:55:22;;;;;;;;;1.00;1.00;;;;;15.39;48.18;98851.63;4807718;28;102619;-82
2021/10/16 06:57:49;;;;;;;;;2.00;2.00;;;;;15.39;48.80;98865.25;4825202;28;102601;-82
2021/10/16 07:00:16;;;;;;;;;2.00;2.00;;;;;15.39;48.67;98864.41;4818471;28;103110;-82
2021/10/16 07:02:43;;;;;;;;;1.75;1.50;;;;;15.39;48.63;98862.53;4804931;28;104052;-82
2021/10/16 07:05:11;;;;;;;;;1.00;1.00;;;;;15.39;48.83;98865.25;4804849;28;102073;-82
2021/10/16 07:07:38;;;;;;;;;2.50;1.75;;;;;15.40;48.61;98866.09;4810622;28;102384;-82
2021/10/16 07:10:05;;;;;;;;;1.00;1.00;;;;;15.39;49.00;98858.97;4797497;28;105042;-82
2021/10/16 07:12:34;;;;;;;;;1.00;1.00;;;;;15.40;48.79;98860.63;4799442;29;104071;-82
2021/10/16 07:15:01;;;;;;;;;1.50;1.50;;;;;15.40;48.50;98861.44;4819798;28;102106;-82
2021/10/16 07:17:28;;;;;;;;;0.25;0.25;;;;;15.41;48.58;98874.00;4807774;28;102218;-81
2021/10/16 07:19:56;;;;;;;;;2.00;2.00;;;;;15.41;48.58;98874.00;4812688;28;102559;-81
2021/10/16 07:22:23;;;;;;;;;1.00;1.00;;;;;15.42;48.65;98869.41;4824243;28;104067;-82
2021/10/16 07:24:50;;;;;;;;;1.25;1.00;;;;;15.43;48.75;98865.63;4808448;28;103218;-82
2021/10/16 07:27:20;;;;;;;;;2.00;1.25;;;;;15.41;48.45;98854.09;4809804;28;102435;-82
2021/10/16 07:29:47;;;;;;;;;2.00;1.00;;;;;15.42;48.85;98864.78;4819190;28;102617;-82
2021/10/16 07:32:16;;;;;;;;;2.00;1.75;;;;;15.43;48.59;98871.06;4823288;28;105942;-82
2021/10/16 07:34:44;;;;;;;;;1.00;1.00;;;;;15.43;48.79;98868.34;4820527;28;102619;-82
2021/10/16 07:37:11;;;;;;;;;2.00;1.00;;;;;15.43;48.38;98871.06;4826849;28;102656;-82
2021/10/16 07:39:38;;;;;;;;;1.50;1.00;;;;;15.43;48.66;98879.25;4832959;28;102160;-83
2021/10/16 07:42:05;;;;;;;;;0.25;0.25;;;;;15.42;48.86;98878.41;4817981;28;104223;-81
2021/10/16 07:44:32;;;;;;;;;1.75;1.50;;;;;15.42;48.70;98880.28;4838487;28;102635;-82
2021/10/16 07:46:59;;;;;;;;;1.00;1.00;;;;;15.43;48.47;98879.25;4822068;28;103335;-82
2021/10/16 07:49:26;;;;;;;;;1.00;1.00;;;;;15.42;48.75;98874.84;4825640;28;104283;-81
2021/10/16 07:51:53;;;;;;;;;2.00;2.00;;;;;15.43;48.54;98881.97;4833461;28;103750;-82
2021/10/16 07:54:21;;;;;;;;;2.00;2.00;;;;;15.43;48.72;98887.41;4815079;28;102735;-82
2021/10/16 07:56:48;;;;;;;;;1.50;1.50;;;;;15.44;48.50;98889.09;4825199;28;102441;-82
2021/10/16 07:59:15;;;;;;;;;1.00;1.00;;;;;15.44;48.62;98889.94;4823608;28;102655;-82
2021/10/16 08:01:42;;;;;;;;;2.00;1.25;;;;;15.44;48.55;98894.53;4812349;28;105017;-82
2021/10/16 08:04:09;;;;;;;;;1.00;1.00;;;;;15.43;48.74;98899.16;4827180;28;102473;-82
2021/10/16 08:06:36;;;;;;;;;1.75;1.00;;;;;15.45;48.50;98904.38;4822629;28;103200;-82
2021/10/16 08:09:03;;;;;;;;;0.75;0.75;;;;;15.45;48.91;98901.63;4824953;28;102648;-82
2021/10/16 08:11:30;;;;;;;;;2.50;2.00;;;;;15.45;48.58;98904.38;4831715;28;104072;-82
2021/10/16 08:13:57;;;;;;;;;1.00;1.00;;;;;15.45;48.62;98907.09;4836293;28;102571;-82
2021/10/16 08:16:24;;;;;;;;;1.00;1.00;;;;;15.44;48.33;98911.72;4827086;28;103545;-82
2021/10/16 08:18:51;;;;;;;;;2.50;1.75;;;;;15.45;48.34;98907.09;4826860;28;102770;-82
2021/10/16 08:21:18;;;;;;;;;1.00;1.00;;;;;15.45;48.58;98915.25;4829232;28;104489;-82
2021/10/16 08:23:45;;;;;;;;;2.00;1.50;;;;;15.44;48.35;98916.34;4807568;29;102682;-82
2021/10/16 08:26:12;;;;;;;;;2.75;2.00;;;;;15.46;48.70;98919.66;4828429;28;102718;-82
2021/10/16 08:28:39;;;;;;;;;1.00;1.00;;;;;15.45;48.44;98928.88;4834426;28;103685;-82
2021/10/16 08:31:06;;;;;;;;;1.50;1.50;;;;;15.42;48.89;98918.44;4819604;28;104080;-82
2021/10/16 08:33:36;;;;;;;;;1.00;1.00;;;;;15.43;48.64;98931.84;4828277;28;102439;-82
2021/10/16 08:36:04;;;;;;;;;2.75;2.00;;;;;15.44;48.55;98938.97;4833286;28;102773;-83
2021/10/16 08:38:31;;;;;;;;;1.50;1.50;;;;;15.44;48.68;98929.97;4828417;28;102654;-82
2021/10/16 08:40:59;;;;;;;;;1.00;1.00;;;;;15.45;48.62;98939.78;4814976;28;103610;-82
2021/10/16 08:43:26;;;;;;;;;2.00;1.00;;;;;15.45;48.45;98939.78;4824423;28;102391;-83
2021/10/16 08:45:54;;;;;;;;;2.25;2.25;;;;;15.45;48.19;98937.06;4824310;28;102557;-82
2021/10/16 08:48:21;;;;;;;;;2.00;0.50;;;;;15.46;48.79;98942.31;4807229;28;102636;-82
2021/10/16 08:50:48;;;;;;;;;2.00;1.75;;;;;15.46;48.48;98944.19;4805529;28;104247;-82
2021/10/16 08:53:15;;;;;;;;;2.00;2.00;;;;;15.47;48.58;98943.13;4815179;28;102435;-82
2021/10/16 08:55:43;;;;;;;;;2.50;2.00;;;;;15.46;48.46;98938.75;4831237;28;102241;-82
2021/10/16 08:58:10;;;;;;;;;2.00;1.75;;;;;15.46;48.38;98950.47;4817195;28;103462;-82
2021/10/16 09:00:53;;;;;;;;;1.25;1.25;;;;;15.46;48.32;98947.75;4811389;28;104079;-82
2021/10/16 09:03:45;;;;;;;;;1.75;1.75;;;;;15.47;48.50;98954.03;4833393;28;102430;-82
2021/10/16 09:06:16;;;;;;;;;1.00;1.00;;;;;15.45;48.47;98948.81;4826839;28;110981;-82
2021/10/16 09:08:46;;;;;;;;;1.00;1.00;;;;;15.46;48.54;98958.66;4823966;28;102546;-82
2021/10/16 09:11:14;;;;;;;;;1.75;1.75;;;;;15.46;48.72;98952.38;4825372;28;104775;-82
2021/10/16 09:13:44;;;;;;;;;1.00;1.00;;;;;15.46;48.67;98963.25;4831057;28;102950;-82
2021/10/16 09:16:33;;;;;;;;;2.00;2.00;;;;;15.47;48.75;98954.03;4815506;28;102869;-83
2021/10/16 09:19:16;;;;;;;;;0.50;0.50;;;;;15.45;48.55;98951.53;4821399;28;102673;-82
2021/10/16 09:21:46;;;;;;;;;2.00;1.00;;;;;15.46;48.37;98953.19;4830523;28;105389;-82
2021/10/16 09:24:27;;;;;;;;;1.75;1.75;;;;;15.47;48.69;98956.75;4788922;28;102676;-82
2021/10/16 09:26:58;;;;;;;;;2.75;1.75;;;;;15.48;48.49;98955.72;4814693;28;102973;-82
2021/10/16 09:29:30;;;;;;;;;2.00;2.00;;;;;15.48;48.59;98962.00;4822296;28;102234;-82
2021/10/16 09:32:05;;;;;;;;;2.25;2.00;;;;;15.48;48.67;98955.72;4813831;28;107696;-82
2021/10/16 09:34:33;;;;;;;;;1.00;1.00;;;;;15.49;48.58;98957.38;4812733;28;103277;-82
2021/10/16 09:37:12;;;;;;;;;2.00;1.25;;;;;15.49;48.38;98965.56;4834162;28;102676;-82
2021/10/16 09:39:40;;;;;;;;;2.75;1.00;;;;;15.48;48.72;98963.88;4816244;28;105119;-82
2021/10/16 09:42:08;;;;;;;;;1.75;1.75;;;;;15.49;48.44;98960.13;4804830;28;103938;-82
2021/10/16 09:44:39;;;;;;;;;2.00;2.00;;;;;15.48;48.66;98962.00;4838256;28;102501;-82
2021/10/16 09:47:15;;;;;;;;;2.00;2.00;;;;;15.49;48.32;98960.13;4830189;28;102453;-82
2021/10/16 09:50:16;;;;;;;;;2.00;2.00;;;;;15.49;48.41;98962.84;4816361;28;102689;-82
2021/10/16 09:52:45;;;;;;;;;1.50;1.50;;;;;15.48;48.59;98964.72;4816163;28;108997;-82
2021/10/16 09:55:13;;;;;;;;;1.00;1.00;;;;;15.51;48.32;98971.66;4825020;28;102231;-82
2021/10/16 09:57:40;;;;;;;;;2.25;1.50;;;;;15.49;48.35;98968.28;4814218;28;103131;-82
2021/10/16 10:00:07;;;;;;;;;2.75;2.75;;;;;15.51;48.60;98966.19;4824124;28;102507;-82
2021/10/16 10:02:34;;;;;;;;;2.00;2.00;;;;;15.49;48.43;98963.66;4836696;28;105748;-82
2021/10/16 10:05:02;;;;;;;;;1.25;1.00;;;;;15.49;48.53;98963.66;4827083;28;102738;-82
2021/10/16 10:07:29;;;;;;;;;4.00;2.25;;;;;15.51;48.46;98968.91;4833395;28;102246;-82
2021/10/16 10:09:56;;;;;;;;;2.00;2.00;;;;;15.52;48.52;98962.41;4816202;28;102547;-82
2021/10/16 10:12:23;;;;;;;;;2.75;2.00;;;;;15.52;48.66;98965.13;4785035;28;104076;-82
2021/10/16 10:14:50;;;;;;;;;2.00;2.00;;;;;15.52;48.68;98965.13;4807675;28;104837;-82
2021/10/16 10:17:31;;;;;;;;;1.25;1.00;;;;;15.52;48.47;98962.41;4822208;28;102757;-82
2021/10/16 10:20:10;;;;;;;;;1.00;1.00;;;;;15.52;48.49;98957.81;4809322;28;102708;-82
2021/10/16 10:22:38;;;;;;;;;3.00;2.00;;;;;15.54;48.46;98965.72;4814961;28;107940;-82
2021/10/16 10:25:21;;;;;;;;;1.50;1.50;;;;;15.53;48.46;98964.09;4807350;28;102247;-82
2021/10/16 10:27:50;;;;;;;;;1.00;1.00;;;;;15.51;48.45;98960.75;4822509;28;103199;-82
2021/10/16 10:30:36;;;;;;;;;1.50;1.25;;;;;15.53;48.42;98964.09;4801283;28;102584;-82
2021/10/16 10:33:15;;;;;;;;;4.25;2.50;;;;;15.53;48.71;98959.47;4817706;28;109113;-82
2021/10/16 10:35:58;;;;;;;;;0.50;0.50;;;;;15.53;48.29;98962.19;4816543;28;102611;-82
2021/10/16 10:38:32;;;;;;;;;2.00;2.00;;;;;15.52;48.63;98960.53;4819979;28;102648;-82
2021/10/16 10:41:21;;;;;;;;;1.00;1.00;;;;;15.52;48.41;98963.25;4812180;28;105423;-82
2021/10/16 10:43:49;;;;;;;;;3.00;2.00;;;;;15.53;48.34;98955.91;4819811;28;108014;-82
2021/10/16 10:46:16;;;;;;;;;1.00;1.00;;;;;15.52;48.20;98954.25;4826244;28;102473;-82
2021/10/16 10:48:44;;;;;;;;;2.00;2.00;;;;;15.53;48.57;98951.31;4817562;28;102196;-82
2021/10/16 10:51:26;;;;;;;;;2.00;2.00;;;;;15.54;48.42;98946.66;4820592;28;103747;-82
2021/10/16 10:54:17;;;;;;;;;2.75;2.25;;;;;15.55;48.32;98949.16;4809203;28;104290;-82
2021/10/16 10:56:47;;;;;;;;;3.00;2.00;;;;;15.56;48.41;98933.66;4821192;28;102591;-82
2021/10/16 10:59:16;;;;;;;;;2.00;1.00;;;;;15.54;48.07;98938.47;4831942;28;104153;-82
2021/10/16 11:02:03;;;;;;;;;2.00;2.00;;;;;15.54;48.56;98943.94;4816025;28;102951;-82
2021/10/16 11:04:38;;;;;;;;;2.25;2.25;;;;;15.56;48.33;98944.56;4820939;28;107663;-82
2021/10/16 11:07:07;;;;;;;;;2.50;2.50;;;;;15.55;47.87;98942.88;4831205;28;103572;-82
2021/10/16 11:09:34;;;;;;;;;2.25;2.00;;;;;15.52;48.44;98936.00;4817752;28;103604;-82
2021/10/16 11:12:01;;;;;;;;;3.75;2.00;;;;;15.55;48.81;98943.72;4829814;28;102154;-82
2021/10/16 11:14:32;;;;;;;;;3.00;2.50;;;;;15.55;48.39;98937.44;4832341;28;104270;-82
2021/10/16 11:17:01;;;;;;;;;2.00;2.00;;;;;15.55;48.44;98929.25;4825245;28;103769;-82
2021/10/16 11:19:28;;;;;;;;;3.25;2.75;;;;;15.55;48.47;98931.97;4822675;28;102562;-82
2021/10/16 11:21:57;;;;;;;;;3.00;2.75;;;;;15.54;48.18;98930.31;4822410;28;102654;-82
2021/10/16 11:24:27;;;;;;;;;2.00;2.00;;;;;15.54;48.51;98928.41;4824190;28;104308;-82
2021/10/16 11:26:56;;;;;;;;;2.00;2.00;;;;;15.55;48.59;98923.81;4818959;28;102403;-82
2021/10/16 11:29:33;;;;;;;;;2.50;1.75;;;;;15.56;48.41;98925.47;4835889;28;102236;-82
2021/10/16 11:32:36;;;;;;;;;3.50;3.00;;;;;15.56;48.51;98925.47;4834678;28;105166;-82